Карточка аэропорта USRR

Внимание!
Информация на этой странице в стадии наполнения.
Если вы не увидели какой-то информации, или заметили неточность - пожалуйста сообщите нам!
Спасибо!
Команда RU-STAFF
Название аэропортаСургут
Название аэропорта (англ.)Surgut
Превышение196 ft. (59.7 m.)
Координаты61°20.502', 73°24.168'
Высота перехода700m
Эшелон переходаQFE>=742mm:FL040; QFE<=742mm:FL050
Коды ответчика5570-5577
Зона ОрВДТюмень РПИ (USTV)
Данные METARUSRR 292330Z 33006MPS 9999 SCT034CB BKN043 M00/M07 Q1015 R25/CLRD60 NOSIG RMK QFE756
Проноз погоды (TAF)USRR 291935Z 2921/3021 32008G14MPS 6000 -SHSN SCT007 BKN016CB TEMPO 2921/3003 30010G22MPS 1200 SHSN SCT005 BKN012CB FM300300 30006G14MPS 9999 BKN020CB TEMPO 3003/3018 5000 -SHSN FEW004 SCT016CB BECMG 3015/3017 25003G12MPS
NOTAMshow/hide NOTAM
AWOS   TABLE

Информация о ВПП

ВПП Длина ВПП (м.) Покрытие Курс ВПП Частота ILS
072780Асфальтобетон73110.5
252780Асфальтобетон253109.1

Диспетчерские позиции

Позывной Наименование органа УВД Частота
USRR_R_APPСургут - Круг120.300
USRR_TWRСургут-Вышка120.800
USRR_APPСургут-Подход129.300



Спутниковое изображение